createdAt,value
2023-03-29T00:00:00.883Z,73.1
2023-03-29T00:01:01.170Z,73.1
2023-03-29T00:02:00.892Z,72.8
2023-03-29T00:03:00.953Z,72.5
2023-03-29T00:04:02.580Z,73.1
2023-03-29T00:05:00.874Z,73.1
2023-03-29T00:06:00.877Z,73.1
2023-03-29T00:07:00.859Z,72.8
2023-03-29T00:08:00.857Z,73.2
2023-03-29T00:09:00.868Z,73.2
2023-03-29T00:10:00.912Z,73.2
2023-03-29T00:11:01.235Z,73.5
2023-03-29T00:12:00.869Z,74.4
2023-03-29T00:13:00.896Z,74.4
2023-03-29T00:14:00.868Z,75
2023-03-29T00:15:00.885Z,75.3
2023-03-29T00:16:00.891Z,74.4
2023-03-29T00:17:00.889Z,74.1
2023-03-29T00:18:00.903Z,73.8
2023-03-29T00:19:00.873Z,74.4
2023-03-29T00:20:00.893Z,73.8
2023-03-29T00:21:01.175Z,73.8
2023-03-29T00:22:00.872Z,73.5
2023-03-29T00:23:00.874Z,74.4
2023-03-29T00:24:00.901Z,74.4
2023-03-29T00:25:00.898Z,74.4
2023-03-29T00:26:00.897Z,73.8
2023-03-29T00:27:00.904Z,73.8
2023-03-29T00:28:00.878Z,73.8
2023-03-29T00:29:00.882Z,73.2
2023-03-29T00:30:00.909Z,72.9
2023-03-29T00:31:01.136Z,73.2
2023-03-29T00:32:00.891Z,73.5
2023-03-29T00:33:00.928Z,73.8
2023-03-29T00:34:00.914Z,73.8
2023-03-29T00:35:00.886Z,73.2
2023-03-29T00:36:00.969Z,73.8
2023-03-29T00:37:00.888Z,74.4
2023-03-29T00:38:00.927Z,73.8
2023-03-29T00:39:00.909Z,74.4
2023-03-29T00:40:00.940Z,73.8
2023-03-29T00:41:01.236Z,74.4
2023-03-29T00:42:00.894Z,74.4
2023-03-29T00:43:00.879Z,74.1
2023-03-29T00:44:00.857Z,73.8
2023-03-29T00:45:00.822Z,74.4
2023-03-29T00:46:00.803Z,74.1
2023-03-29T00:47:00.761Z,73.8
2023-03-29T00:48:00.756Z,73.8
2023-03-29T00:49:00.707Z,73.8
2023-03-29T00:50:00.665Z,74.1
2023-03-29T00:51:00.892Z,73.8
2023-03-29T00:52:00.598Z,74.1
2023-03-29T00:53:00.593Z,73.8
2023-03-29T00:54:00.582Z,73.8
2023-03-29T00:55:00.553Z,73.5
2023-03-29T00:56:00.570Z,73.8
2023-03-29T00:57:00.581Z,73.8
2023-03-29T00:58:01.165Z,73.8
2023-03-29T00:59:00.567Z,73.8
2023-03-29T01:00:00.595Z,73.8
2023-03-29T01:01:00.906Z,73.8
2023-03-29T01:02:00.594Z,74.1
2023-03-29T01:03:00.653Z,73.8
2023-03-29T01:04:00.598Z,74.1
2023-03-29T01:05:00.572Z,73.8
2023-03-29T01:06:00.563Z,73.8
2023-03-29T01:07:00.684Z,74.4
2023-03-29T01:08:00.599Z,74.1
2023-03-29T01:09:00.569Z,74.4
2023-03-29T01:10:00.590Z,74.1
2023-03-29T01:11:00.851Z,73.8
2023-03-29T01:12:00.607Z,74.1
2023-03-29T01:13:00.602Z,74.1
2023-03-29T01:14:00.581Z,74.1
2023-03-29T01:15:00.589Z,74.4
2023-03-29T01:16:00.584Z,74.4
2023-03-29T01:17:00.624Z,74.4
2023-03-29T01:18:00.625Z,74.4
2023-03-29T01:19:00.570Z,75.4
2023-03-29T01:20:00.604Z,75.4
2023-03-29T01:21:00.849Z,75
2023-03-29T01:22:00.578Z,74.4
2023-03-29T01:23:00.596Z,74.4
2023-03-29T01:24:00.592Z,74.7
2023-03-29T01:25:00.601Z,75
2023-03-29T01:26:00.600Z,75.7
2023-03-29T01:27:00.667Z,75.7
2023-03-29T01:28:00.610Z,75
2023-03-29T01:29:00.592Z,75
2023-03-29T01:30:00.608Z,75.7
2023-03-29T01:31:00.767Z,75.3
2023-03-29T01:32:00.650Z,75
2023-03-29T01:33:00.646Z,75
2023-03-29T01:34:00.594Z,74.7
2023-03-29T01:35:00.626Z,74.1
2023-03-29T01:36:00.643Z,74.1
2023-03-29T01:37:00.614Z,73.8
2023-03-29T01:38:00.624Z,73.8
2023-03-29T01:39:00.608Z,73.8
2023-03-29T01:40:00.656Z,74.4
2023-03-29T01:41:00.930Z,73.2
2023-03-29T01:42:00.614Z,73.2
2023-03-29T01:43:00.650Z,73.5
2023-03-29T01:44:00.601Z,73.8
2023-03-29T01:45:00.611Z,73.8
2023-03-29T01:46:00.629Z,73.8
2023-03-29T01:47:00.599Z,73.8
2023-03-29T01:48:00.713Z,73.2
2023-03-29T01:49:00.630Z,73.8
2023-03-29T01:50:00.640Z,73.8
2023-03-29T01:51:00.919Z,73.8
2023-03-29T01:52:00.615Z,73.8
2023-03-29T01:53:00.622Z,73.5
2023-03-29T01:54:00.632Z,73.8
2023-03-29T01:55:00.625Z,73.2
2023-03-29T01:56:00.639Z,73.2
2023-03-29T01:57:00.702Z,73.2
2023-03-29T01:58:00.636Z,72.9
2023-03-29T01:59:00.617Z,72.6
2023-03-29T02:00:01.306Z,72.9
2023-03-29T02:01:01.347Z,72.9
2023-03-29T02:02:01.097Z,72.9
2023-03-29T02:03:01.209Z,73.2
2023-03-29T02:04:01.094Z,73.2
2023-03-29T02:05:01.108Z,73.5
2023-03-29T02:06:01.159Z,74.1
2023-03-29T02:07:01.093Z,74.1
2023-03-29T02:08:01.130Z,74.4
2023-03-29T02:09:01.126Z,74.4
2023-03-29T02:10:01.170Z,74.4
2023-03-29T02:11:01.245Z,74.4
2023-03-29T02:12:01.109Z,74.5
2023-03-29T02:13:01.116Z,74.5
2023-03-29T02:14:01.111Z,74.8
2023-03-29T02:15:01.208Z,74.8
2023-03-29T02:16:01.230Z,74.4
2023-03-29T02:17:01.103Z,73.8
2023-03-29T02:18:01.156Z,73.8
2023-03-29T02:19:01.127Z,73.8
2023-03-29T02:20:01.144Z,73.8
2023-03-29T02:21:01.379Z,73.5
2023-03-29T02:22:01.114Z,73.2
2023-03-29T02:23:01.123Z,72.9
2023-03-29T02:24:01.115Z,72.9
2023-03-29T02:25:01.175Z,73.2
2023-03-29T02:26:01.151Z,73.8
2023-03-29T02:27:01.115Z,73.2
2023-03-29T02:28:01.176Z,73.5
2023-03-29T02:29:01.115Z,73.2
2023-03-29T02:30:01.136Z,73.8
2023-03-29T02:31:01.334Z,73.5
2023-03-29T02:32:01.122Z,73.5
2023-03-29T02:33:01.164Z,73.2
2023-03-29T02:34:01.131Z,73.2
2023-03-29T02:35:01.128Z,73.2
2023-03-29T02:36:01.157Z,73.2
2023-03-29T02:37:01.122Z,72.9
2023-03-29T02:38:01.147Z,72.6
2023-03-29T02:39:01.137Z,72.6
2023-03-29T02:40:01.193Z,72.6
2023-03-29T02:41:01.528Z,72.6
2023-03-29T02:42:01.161Z,72.9
2023-03-29T02:43:01.149Z,72.9
2023-03-29T02:44:01.158Z,72.9
2023-03-29T02:45:01.169Z,73.2
2023-03-29T02:46:01.131Z,72.9
2023-03-29T02:47:01.210Z,72.9
2023-03-29T02:48:01.224Z,72.6
2023-03-29T02:49:01.137Z,72.6
2023-03-29T02:50:01.209Z,72.9
2023-03-29T02:51:01.525Z,73.2
2023-03-29T02:52:01.139Z,73.2
2023-03-29T02:53:01.177Z,73.8
2023-03-29T02:54:01.155Z,73.8
2023-03-29T02:55:01.155Z,73.5
2023-03-29T02:56:01.163Z,73.8
2023-03-29T02:57:01.222Z,74.4
2023-03-29T02:58:01.167Z,74.1
2023-03-29T02:59:01.165Z,74.1
2023-03-29T03:00:02.375Z,73.8
2023-03-29T03:01:01.382Z,74.4
2023-03-29T03:02:01.227Z,74.4
2023-03-29T03:03:02.076Z,74.4
2023-03-29T03:04:01.177Z,75
2023-03-29T03:05:01.175Z,74.7
2023-03-29T03:06:01.158Z,75
2023-03-29T03:07:01.164Z,75
2023-03-29T03:08:01.174Z,75.3
2023-03-29T03:09:01.166Z,75.3
2023-03-29T03:10:01.174Z,75.7
2023-03-29T03:11:01.341Z,75
2023-03-29T03:12:01.188Z,75.3
2023-03-29T03:13:01.193Z,75.6
2023-03-29T03:14:01.189Z,75.6
2023-03-29T03:15:01.196Z,75.6
2023-03-29T03:16:01.385Z,75.7
2023-03-29T03:17:03.883Z,75.6
2023-03-29T03:18:01.454Z,75
2023-03-29T03:19:01.268Z,75
2023-03-29T03:20:01.202Z,75.4
2023-03-29T03:21:01.511Z,75.3
2023-03-29T03:22:01.207Z,75.3
2023-03-29T03:23:01.226Z,76
2023-03-29T03:24:01.197Z,75.6
2023-03-29T03:25:01.204Z,75.7
2023-03-29T03:26:01.200Z,75
2023-03-29T03:27:01.250Z,75
2023-03-29T03:28:01.172Z,75
2023-03-29T03:29:01.200Z,75
2023-03-29T03:30:01.208Z,75
2023-03-29T03:31:01.367Z,75.7
2023-03-29T03:32:01.231Z,75.6
2023-03-29T03:33:01.223Z,75.7
2023-03-29T03:34:01.206Z,75.7
2023-03-29T03:35:01.195Z,75.7
2023-03-29T03:36:01.228Z,75.7
2023-03-29T03:37:01.212Z,76
2023-03-29T03:38:01.180Z,75.7
2023-03-29T03:39:01.201Z,76.3
2023-03-29T03:40:01.224Z,76.3
2023-03-29T03:41:01.460Z,76
2023-03-29T03:42:01.205Z,76.3
2023-03-29T03:43:01.192Z,76.3
2023-03-29T03:44:01.224Z,75.7
2023-03-29T03:45:01.207Z,74.7
2023-03-29T03:46:01.277Z,74.4
2023-03-29T03:47:01.214Z,74.4
2023-03-29T03:48:01.263Z,74.7
2023-03-29T03:49:01.210Z,74.4
2023-03-29T03:50:02.315Z,75
2023-03-29T03:51:01.370Z,75
2023-03-29T03:52:01.209Z,75.7
2023-03-29T03:53:01.191Z,76.3
2023-03-29T03:54:01.217Z,76.3
2023-03-29T03:55:01.197Z,76.3
2023-03-29T03:56:01.218Z,76.3
2023-03-29T03:57:01.259Z,76.9
2023-03-29T03:58:01.206Z,76
2023-03-29T03:59:01.223Z,75.7
2023-03-29T04:00:01.279Z,76.3
2023-03-29T04:01:01.380Z,76.6
2023-03-29T04:02:01.275Z,76.3
2023-03-29T04:03:01.361Z,76.6
2023-03-29T04:04:01.375Z,76.9
2023-03-29T04:05:01.238Z,76.9
2023-03-29T04:06:01.220Z,76.9
2023-03-29T04:07:01.228Z,77.5
2023-03-29T04:08:01.240Z,77.5
2023-03-29T04:09:01.239Z,77.5
2023-03-29T04:10:01.294Z,77.5
2023-03-29T04:11:01.466Z,77.5
2023-03-29T04:12:01.241Z,77.2
2023-03-29T04:13:01.213Z,77.5
2023-03-29T04:14:01.212Z,77.5
2023-03-29T04:15:01.322Z,77.8
2023-03-29T04:16:01.984Z,77.8
2023-03-29T04:17:01.251Z,78.2
2023-03-29T04:18:01.373Z,78.1
2023-03-29T04:19:01.304Z,78.2
2023-03-29T04:20:01.269Z,78.1
2023-03-29T04:21:01.590Z,77.5
2023-03-29T04:22:01.247Z,78.1
2023-03-29T04:23:01.233Z,78.1
2023-03-29T04:24:01.252Z,78.2
2023-03-29T04:25:01.253Z,78.2
2023-03-29T04:26:01.254Z,78.1
2023-03-29T04:27:01.273Z,78.8
2023-03-29T04:28:01.249Z,78.5
2023-03-29T04:29:01.230Z,78.8
2023-03-29T04:30:01.382Z,78.8
2023-03-29T04:31:01.610Z,78.8
2023-03-29T04:32:01.267Z,79.1
2023-03-29T04:33:01.322Z,78.8
2023-03-29T04:34:01.286Z,78.1
2023-03-29T04:35:01.285Z,78.2
2023-03-29T04:36:01.300Z,78.5
2023-03-29T04:37:01.274Z,78.8
2023-03-29T04:38:01.274Z,78.8
2023-03-29T04:39:01.560Z,78.8
2023-03-29T04:40:01.318Z,78.2
2023-03-29T04:41:01.489Z,78.5
2023-03-29T04:42:01.271Z,78.2
2023-03-29T04:43:01.275Z,77.6
2023-03-29T04:44:01.283Z,78.2
2023-03-29T04:45:01.397Z,78.2
2023-03-29T04:46:01.311Z,79.1
2023-03-29T04:47:01.285Z,79.4
2023-03-29T04:48:01.359Z,79.1
2023-03-29T04:49:01.299Z,78.8
2023-03-29T04:50:01.313Z,78.8
2023-03-29T04:51:01.482Z,79.4
2023-03-29T04:52:01.293Z,79.1
2023-03-29T04:53:01.304Z,79.4
2023-03-29T04:54:01.313Z,78.8
2023-03-29T04:55:01.317Z,78.8
2023-03-29T04:56:01.296Z,78.2
2023-03-29T04:57:01.339Z,78.2
2023-03-29T04:58:01.304Z,78.2
2023-03-29T04:59:01.296Z,78.2
2023-03-29T05:00:01.605Z,78.2
2023-03-29T05:01:01.621Z,78.5
2023-03-29T05:02:01.341Z,78.5
2023-03-29T05:03:01.358Z,78.8
2023-03-29T05:04:01.307Z,78.8
2023-03-29T05:05:01.308Z,78.8
2023-03-29T05:06:01.306Z,78.8
2023-03-29T05:07:01.280Z,78.5
2023-03-29T05:08:01.291Z,78.5
2023-03-29T05:09:01.288Z,78.2
2023-03-29T05:10:01.324Z,78.8
2023-03-29T05:11:01.512Z,78.2
2023-03-29T05:12:01.318Z,78.8
2023-03-29T05:13:01.294Z,79.4
2023-03-29T05:14:01.290Z,79.4
2023-03-29T05:15:01.323Z,79.4
2023-03-29T05:16:01.353Z,78.5
2023-03-29T05:17:01.308Z,78.2
2023-03-29T05:18:01.363Z,77.9
2023-03-29T05:19:01.291Z,78.2
2023-03-29T05:20:01.318Z,78.8
2023-03-29T05:21:01.498Z,78.8
2023-03-29T05:22:01.312Z,78.5
2023-03-29T05:23:01.294Z,78.2
2023-03-29T05:24:01.303Z,78.2
2023-03-29T05:25:01.319Z,78.2
2023-03-29T05:26:01.324Z,77.6
2023-03-29T05:27:01.328Z,78.2
2023-03-29T05:28:01.306Z,78.5
2023-03-29T05:29:01.299Z,78.2
2023-03-29T05:30:01.368Z,78.2
2023-03-29T05:31:01.738Z,78.8
2023-03-29T05:32:01.415Z,78.8
2023-03-29T05:33:01.374Z,78.2
2023-03-29T05:34:01.314Z,78.2
2023-03-29T05:35:01.331Z,78.2
2023-03-29T05:36:01.407Z,78.2
2023-03-29T05:37:01.333Z,78.2
2023-03-29T05:38:01.319Z,78.8
2023-03-29T05:39:01.329Z,78.5
2023-03-29T05:40:05.783Z,78.2
2023-03-29T05:41:01.515Z,78.2
2023-03-29T05:42:01.321Z,78.2
2023-03-29T05:43:01.315Z,78.2
2023-03-29T05:44:01.331Z,78.2
2023-03-29T05:45:01.458Z,78.2
2023-03-29T05:46:01.379Z,78.9
2023-03-29T05:47:01.317Z,78.9
2023-03-29T05:48:01.361Z,78.3
2023-03-29T05:49:01.322Z,77.9
2023-03-29T05:50:01.370Z,78
2023-03-29T05:51:01.590Z,77.3
2023-03-29T05:52:01.351Z,77.3
2023-03-29T05:53:01.327Z,77.6
2023-03-29T05:54:01.327Z,77.3
2023-03-29T05:55:01.349Z,77
2023-03-29T05:56:01.346Z,77
2023-03-29T05:57:01.361Z,77
2023-03-29T05:58:01.337Z,76.7
2023-03-29T05:59:01.328Z,76.7
2023-03-29T06:00:01.364Z,76.4
2023-03-29T06:01:01.508Z,76.4
2023-03-29T06:02:01.378Z,76.1
2023-03-29T06:03:10.198Z,76.4
2023-03-29T06:04:01.385Z,76.4
2023-03-29T06:05:01.392Z,76.4
2023-03-29T06:06:01.366Z,76.7
2023-03-29T06:07:01.333Z,76.7
2023-03-29T06:08:01.339Z,76.7
2023-03-29T06:09:01.365Z,76.4
2023-03-29T06:10:01.357Z,76.4
2023-03-29T06:11:03.980Z,76.4
2023-03-29T06:12:01.344Z,75.5
2023-03-29T06:13:01.341Z,74.9
2023-03-29T06:14:01.361Z,74.6
2023-03-29T06:15:01.362Z,73.9
2023-03-29T06:16:01.375Z,74.6
2023-03-29T06:17:01.399Z,74.3
2023-03-29T06:18:02.435Z,74.3
2023-03-29T06:19:01.368Z,74.6
2023-03-29T06:20:01.374Z,74.6
2023-03-29T06:21:01.570Z,73.9
2023-03-29T06:22:01.374Z,73.9
2023-03-29T06:23:01.373Z,74
2023-03-29T06:24:01.362Z,74.3
2023-03-29T06:25:01.384Z,74
2023-03-29T06:26:01.398Z,74
2023-03-29T06:27:01.371Z,73.3
2023-03-29T06:28:01.373Z,73.4
2023-03-29T06:29:01.355Z,72.7
2023-03-29T06:30:01.393Z,72.7
2023-03-29T06:31:01.640Z,73.4
2023-03-29T06:32:01.373Z,72.7
2023-03-29T06:33:01.464Z,72.8
2023-03-29T06:34:01.414Z,72.8
2023-03-29T06:35:01.381Z,73.1
2023-03-29T06:36:01.469Z,73.4
2023-03-29T06:37:01.363Z,73.4
2023-03-29T06:38:01.368Z,73.4
2023-03-29T06:39:01.398Z,73.1
2023-03-29T06:40:01.396Z,73.4
2023-03-29T06:41:01.540Z,73.1
2023-03-29T06:42:10.068Z,73.4
2023-03-29T06:43:01.418Z,73.7
2023-03-29T06:44:00.625Z,73.4
2023-03-29T06:45:00.639Z,73.4
2023-03-29T06:46:00.676Z,73.4
2023-03-29T06:47:00.623Z,73.4
2023-03-29T06:48:00.671Z,73.4
2023-03-29T06:49:00.602Z,73.1
2023-03-29T06:50:00.657Z,72.8
2023-03-29T06:51:01.110Z,72.8
2023-03-29T06:52:00.634Z,73.1
2023-03-29T06:53:00.604Z,73.4
2023-03-29T06:54:00.999Z,73.4
2023-03-29T06:55:00.621Z,73.4
2023-03-29T06:56:00.643Z,73.4
2023-03-29T06:57:00.674Z,73.4
2023-03-29T06:58:02.682Z,73.1
2023-03-29T06:59:00.620Z,72.8
2023-03-29T07:00:00.662Z,73.5
2023-03-29T07:01:00.837Z,73.2
2023-03-29T07:02:00.660Z,72.9
2023-03-29T07:03:00.665Z,72.8
2023-03-29T07:04:00.725Z,72.5
2023-03-29T07:05:00.659Z,72.2
2023-03-29T07:06:00.645Z,72.2
2023-03-29T07:07:00.628Z,72.9
2023-03-29T07:08:00.895Z,72.6
2023-03-29T07:09:00.628Z,71.6
2023-03-29T07:10:00.679Z,71.6
2023-03-29T07:11:00.798Z,71.6
2023-03-29T07:12:00.636Z,71.6
2023-03-29T07:13:00.652Z,72
2023-03-29T07:14:00.646Z,71.3
2023-03-29T07:15:00.760Z,71.7
2023-03-29T07:16:00.720Z,71.7
2023-03-29T07:17:00.638Z,71.7
2023-03-29T07:18:00.703Z,71.4
2023-03-29T07:19:00.636Z,71.1
2023-03-29T07:20:00.692Z,71.1
2023-03-29T07:21:01.041Z,70.2
2023-03-29T07:22:00.633Z,70.5
2023-03-29T07:23:00.645Z,70.5
2023-03-29T07:24:00.654Z,69.8
2023-03-29T07:25:00.705Z,68.6
2023-03-29T07:26:00.642Z,69.2
2023-03-29T07:27:04.450Z,69.6
2023-03-29T07:28:00.640Z,69.3
2023-03-29T07:29:00.653Z,69
2023-03-29T07:30:00.791Z,69
2023-03-29T07:31:00.887Z,69
2023-03-29T07:32:00.651Z,69
2023-03-29T07:33:00.868Z,68.7
2023-03-29T07:34:00.651Z,69
2023-03-29T07:35:00.680Z,68.7
2023-03-29T07:36:00.694Z,67.7
2023-03-29T07:37:00.661Z,68.1
2023-03-29T07:38:00.662Z,68.7
2023-03-29T07:39:00.684Z,67.4
2023-03-29T07:40:00.688Z,67.8
2023-03-29T07:41:00.873Z,67.5
2023-03-29T07:42:00.660Z,67.1
2023-03-29T07:43:00.670Z,66.5
2023-03-29T07:44:03.260Z,66.5
2023-03-29T07:45:00.732Z,66.2
2023-03-29T07:46:00.686Z,66.9
2023-03-29T07:47:00.689Z,66.9
2023-03-29T07:48:00.736Z,66.2
2023-03-29T07:49:00.676Z,66.9
2023-03-29T07:50:00.737Z,66.2
2023-03-29T07:51:00.793Z,66.2
2023-03-29T07:52:00.677Z,66
2023-03-29T07:53:00.676Z,65.9
2023-03-29T07:54:00.692Z,65.7
2023-03-29T07:55:00.694Z,66
2023-03-29T07:56:00.668Z,66
2023-03-29T07:57:00.757Z,65
2023-03-29T07:58:00.668Z,65
2023-03-29T07:59:00.699Z,65
2023-03-29T08:00:00.687Z,65.4
2023-03-29T08:01:00.998Z,64.8
2023-03-29T08:02:00.703Z,64.7
2023-03-29T08:03:00.734Z,65.1
2023-03-29T08:04:00.831Z,63.8
2023-03-29T08:05:00.714Z,63.5
2023-03-29T08:06:00.678Z,63.5
2023-03-29T08:07:00.718Z,64.1
2023-03-29T08:08:00.676Z,64.4
2023-03-29T08:09:00.701Z,63.8
2023-03-29T08:10:00.717Z,63.8
2023-03-29T08:11:00.951Z,64.5
2023-03-29T08:12:00.706Z,63.2
2023-03-29T08:13:00.688Z,63.8
2023-03-29T08:14:00.711Z,63.8
2023-03-29T08:15:00.709Z,63.8
2023-03-29T08:16:00.707Z,63.2
2023-03-29T08:17:00.792Z,63.5
2023-03-29T08:18:00.746Z,63.9
2023-03-29T08:19:00.700Z,63.5
2023-03-29T08:20:00.708Z,63.2
2023-03-29T08:21:00.941Z,63.5
2023-03-29T08:22:00.734Z,63.9
2023-03-29T08:23:00.710Z,63.9
2023-03-29T08:24:00.724Z,63.6
2023-03-29T08:25:00.740Z,63.6
2023-03-29T08:26:00.709Z,62.9
2023-03-29T08:27:00.731Z,62.6
2023-03-29T08:28:00.737Z,62.6
2023-03-29T08:29:00.717Z,62.6
2023-03-29T08:30:00.769Z,62.6
2023-03-29T08:31:00.995Z,62.6
2023-03-29T08:32:00.739Z,62.6
2023-03-29T08:33:00.826Z,62.9
2023-03-29T08:34:00.710Z,63.2
2023-03-29T08:35:00.736Z,63.3
2023-03-29T08:36:00.791Z,63.2
2023-03-29T08:37:00.749Z,62.6
2023-03-29T08:38:00.723Z,63.2
2023-03-29T08:39:00.719Z,62.3
2023-03-29T08:40:00.739Z,62.3
2023-03-29T08:41:00.961Z,62.3
2023-03-29T08:42:00.740Z,63
2023-03-29T08:43:00.723Z,62.9
2023-03-29T08:44:00.726Z,62.6
2023-03-29T08:45:00.748Z,62
2023-03-29T08:46:00.765Z,62.3
2023-03-29T08:47:00.792Z,62.7
2023-03-29T08:48:00.798Z,62
2023-03-29T08:49:00.753Z,62
2023-03-29T08:50:00.754Z,62
2023-03-29T08:51:00.989Z,62
2023-03-29T08:52:00.745Z,61.1
2023-03-29T08:53:01.124Z,61.1
2023-03-29T08:54:00.750Z,61.7
2023-03-29T08:55:00.756Z,60.5
2023-03-29T08:56:00.738Z,61.4
2023-03-29T08:57:00.780Z,60.8
2023-03-29T08:58:00.733Z,60.5
2023-03-29T08:59:00.745Z,60.2
2023-03-29T09:00:00.774Z,60.2
2023-03-29T09:01:01.142Z,59.8
2023-03-29T09:02:00.882Z,60.8
2023-03-29T09:03:00.844Z,60.8
2023-03-29T09:04:00.844Z,60.8
2023-03-29T09:05:00.770Z,61.1
2023-03-29T09:06:00.759Z,61.4
2023-03-29T09:07:00.758Z,61.4
2023-03-29T09:08:00.750Z,61.4
2023-03-29T09:09:00.745Z,60.5
2023-03-29T09:10:00.775Z,61.1
2023-03-29T09:11:01.012Z,60.2
2023-03-29T09:12:00.761Z,59.6
2023-03-29T09:13:00.764Z,60.5
2023-03-29T09:14:00.748Z,60.5
2023-03-29T09:15:00.777Z,58.9
2023-03-29T09:16:00.789Z,59.9
2023-03-29T09:17:00.778Z,59.3
2023-03-29T09:18:00.819Z,59.9
2023-03-29T09:19:00.754Z,59.9
2023-03-29T09:20:00.780Z,59.6
2023-03-29T09:21:01.174Z,59
2023-03-29T09:22:00.768Z,58.4
2023-03-29T09:23:00.754Z,57.7
2023-03-29T09:24:00.764Z,57.7
2023-03-29T09:25:00.778Z,58.1
2023-03-29T09:26:00.780Z,59.3
2023-03-29T09:27:00.759Z,59
2023-03-29T09:28:00.775Z,59
2023-03-29T09:29:00.793Z,58.1
2023-03-29T09:30:00.779Z,57.5
2023-03-29T09:31:01.085Z,57.2
2023-03-29T09:32:00.817Z,57.2
2023-03-29T09:33:00.835Z,57.8
2023-03-29T09:34:00.765Z,57.2
2023-03-29T09:35:00.772Z,57.2
2023-03-29T09:36:00.815Z,57.8
2023-03-29T09:37:00.766Z,58.1
2023-03-29T09:38:00.794Z,57.8
2023-03-29T09:39:00.780Z,56.6
2023-03-29T09:40:02.550Z,55.3
2023-03-29T09:41:01.126Z,55.3
2023-03-29T09:42:00.793Z,55.6
2023-03-29T09:43:00.778Z,54.7
2023-03-29T09:44:00.796Z,55.3
2023-03-29T09:45:00.790Z,55.3
2023-03-29T09:46:00.861Z,55.9
2023-03-29T09:47:00.779Z,55.7
2023-03-29T09:48:00.851Z,55.7
2023-03-29T09:49:00.809Z,55.3
2023-03-29T09:50:00.812Z,55.7
2023-03-29T09:51:01.127Z,54.7
2023-03-29T09:52:00.782Z,53.8
2023-03-29T09:53:00.803Z,53.5
2023-03-29T09:54:00.800Z,54.7
2023-03-29T09:55:00.803Z,54.4
2023-03-29T09:56:00.817Z,54.1
2023-03-29T09:57:00.829Z,53.5
2023-03-29T09:58:00.795Z,53.2
2023-03-29T09:59:00.817Z,54.1
2023-03-29T10:00:00.820Z,53.5
2023-03-29T10:01:01.116Z,53.5
2023-03-29T10:02:00.795Z,52.2
2023-03-29T10:03:00.837Z,54.1
2023-03-29T10:04:00.828Z,54.1
2023-03-29T10:05:01.003Z,52.9
2023-03-29T10:06:00.816Z,52.9
2023-03-29T10:07:00.796Z,53.5
2023-03-29T10:08:00.800Z,54.2
2023-03-29T10:09:00.822Z,52.9
2023-03-29T10:10:00.807Z,53.2
2023-03-29T10:11:01.134Z,52.9
2023-03-29T10:12:00.811Z,52.9
2023-03-29T10:13:00.829Z,52.6
2023-03-29T10:14:00.811Z,51
2023-03-29T10:15:00.880Z,52
2023-03-29T10:16:00.867Z,52
2023-03-29T10:17:00.838Z,52.3
2023-03-29T10:18:00.930Z,52.6
2023-03-29T10:19:01.628Z,51.6
2023-03-29T10:20:03.697Z,51.3
2023-03-29T10:21:01.162Z,52.2
2023-03-29T10:22:00.825Z,51.6
2023-03-29T10:23:00.862Z,51.9
2023-03-29T10:24:00.824Z,52.2
2023-03-29T10:25:00.880Z,52.2
2023-03-29T10:26:00.837Z,51.6
2023-03-29T10:27:00.828Z,52.6
2023-03-29T10:28:00.856Z,52.6
2023-03-29T10:29:00.828Z,52.6
2023-03-29T10:30:00.865Z,51.6
2023-03-29T10:31:01.154Z,51.6
2023-03-29T10:32:00.884Z,51.6
2023-03-29T10:33:00.871Z,50.4
2023-03-29T10:34:00.845Z,50.4
2023-03-29T10:35:00.885Z,50.1
2023-03-29T10:36:00.990Z,50.4
2023-03-29T10:37:00.868Z,49.8
2023-03-29T10:38:00.840Z,50.4
2023-03-29T10:39:03.541Z,50.1
2023-03-29T10:40:00.851Z,50.4
2023-03-29T10:41:01.025Z,50.7
2023-03-29T10:42:00.844Z,48.8
2023-03-29T10:43:00.847Z,50.4
2023-03-29T10:44:00.841Z,50.4
2023-03-29T10:45:00.846Z,50.1
2023-03-29T10:46:00.914Z,49.8
2023-03-29T10:47:00.854Z,49.8
2023-03-29T10:48:00.923Z,48.5
2023-03-29T10:49:00.858Z,48.6
2023-03-29T10:50:00.847Z,49.2
2023-03-29T10:51:01.201Z,49.2
2023-03-29T10:52:00.871Z,48.5
2023-03-29T10:53:00.856Z,49.5
2023-03-29T10:54:00.892Z,49.2
2023-03-29T10:55:00.849Z,47.9
2023-03-29T10:56:00.865Z,48.5
2023-03-29T10:57:00.885Z,48.5
2023-03-29T10:58:00.852Z,49.8
2023-03-29T10:59:00.877Z,49.2
2023-03-29T11:00:00.886Z,49.5
2023-03-29T11:01:01.041Z,47.9
2023-03-29T11:02:00.893Z,48.6
2023-03-29T11:03:00.916Z,49.8
2023-03-29T11:04:01.087Z,49.2
2023-03-29T11:05:00.868Z,48.9
2023-03-29T11:06:00.869Z,49.2
2023-03-29T11:07:00.872Z,49.8
2023-03-29T11:08:00.868Z,48.6
2023-03-29T11:09:00.887Z,48
2023-03-29T11:10:00.896Z,48.6
2023-03-29T11:11:01.253Z,48.6
2023-03-29T11:12:14.340Z,48
2023-03-29T11:13:00.884Z,48.6
2023-03-29T11:14:00.898Z,48
2023-03-29T11:15:00.878Z,48.6
2023-03-29T11:16:00.917Z,46.7
2023-03-29T11:17:00.896Z,48.7
2023-03-29T11:18:00.901Z,48.7
2023-03-29T11:19:00.887Z,48.7
2023-03-29T11:20:02.978Z,48
2023-03-29T11:21:01.046Z,48
2023-03-29T11:22:00.910Z,47.4
2023-03-29T11:23:00.877Z,47.4
2023-03-29T11:24:00.884Z,46.2
2023-03-29T11:25:00.885Z,44.9
2023-03-29T11:26:00.897Z,45.5
2023-03-29T11:27:00.896Z,46.5
2023-03-29T11:28:00.883Z,46.8
2023-03-29T11:29:00.881Z,46.5
2023-03-29T11:30:00.951Z,45.5
2023-03-29T11:31:01.124Z,45.2
2023-03-29T11:32:00.937Z,45.9
2023-03-29T11:33:00.919Z,45.5
2023-03-29T11:34:00.891Z,45.5
2023-03-29T11:35:00.888Z,42.7
2023-03-29T11:36:01.011Z,42.7
2023-03-29T11:37:00.893Z,44.9
2023-03-29T11:38:00.896Z,43.9
2023-03-29T11:39:00.893Z,43.3
2023-03-29T11:40:00.904Z,44
2023-03-29T11:41:01.214Z,43
2023-03-29T11:42:00.897Z,43
2023-03-29T11:43:00.921Z,41.7
2023-03-29T11:44:00.896Z,44.6
2023-03-29T11:45:00.896Z,43.7
2023-03-29T11:46:00.931Z,42.4
2023-03-29T11:47:00.930Z,42.4
2023-03-29T11:48:00.950Z,43.7
2023-03-29T11:49:00.917Z,44.9
2023-03-29T11:50:00.942Z,43.7
2023-03-29T11:51:01.127Z,43.7
2023-03-29T11:52:00.904Z,44
2023-03-29T11:53:00.927Z,44.3
2023-03-29T11:54:00.942Z,44
2023-03-29T11:55:00.940Z,44
2023-03-29T11:56:00.932Z,43.7
2023-03-29T11:57:00.928Z,43.7
2023-03-29T11:58:00.956Z,43.7
2023-03-29T11:59:00.922Z,41.8
2023-03-29T12:00:00.940Z,41.8
2023-03-29T12:01:01.158Z,42.1
2023-03-29T12:02:00.973Z,42.4
2023-03-29T12:03:01.020Z,42.4
2023-03-29T12:04:01.004Z,41.8
2023-03-29T12:05:00.935Z,41.1
2023-03-29T12:06:00.935Z,40.5
2023-03-29T12:07:00.915Z,41.1
2023-03-29T12:08:00.941Z,41.2
2023-03-29T12:09:00.922Z,40.5
2023-03-29T12:10:00.926Z,41.8
2023-03-29T12:11:01.346Z,43.7
2023-03-29T12:12:00.942Z,44.4
2023-03-29T12:13:00.947Z,43.1
2023-03-29T12:14:00.921Z,42.8
2023-03-29T12:15:00.930Z,43.7
2023-03-29T12:16:00.965Z,43.1
2023-03-29T12:17:01.000Z,41.8
2023-03-29T12:18:00.943Z,41.8
2023-03-29T12:19:00.947Z,41.8
2023-03-29T12:20:00.935Z,41.2
2023-03-29T12:21:00.989Z,41.2
2023-03-29T12:22:00.941Z,41.2
2023-03-29T12:23:00.933Z,41.5
2023-03-29T12:24:00.935Z,41.8
2023-03-29T12:25:00.943Z,42.1
2023-03-29T12:26:00.959Z,42.1
2023-03-29T12:27:00.973Z,42.5
2023-03-29T12:28:00.938Z,41.5
2023-03-29T12:29:00.961Z,42.5
2023-03-29T12:30:00.952Z,41.5
2023-03-29T12:31:01.169Z,42.1
2023-03-29T12:32:00.968Z,41.2
2023-03-29T12:33:00.958Z,42.8
2023-03-29T12:34:00.999Z,43.1
2023-03-29T12:35:00.959Z,43.1
2023-03-29T12:36:01.000Z,41.8
2023-03-29T12:37:00.962Z,43.4
2023-03-29T12:38:00.977Z,42.8
2023-03-29T12:39:01.029Z,42.5
2023-03-29T12:40:01.307Z,42.2
2023-03-29T12:41:01.225Z,42.5
2023-03-29T12:42:01.247Z,42.5
2023-03-29T12:43:00.992Z,41.8
2023-03-29T12:44:00.954Z,41.5
2023-03-29T12:45:00.923Z,42.5
2023-03-29T12:46:01.134Z,42.5
2023-03-29T12:47:00.865Z,43.1
2023-03-29T12:48:00.902Z,43.8
2023-03-29T12:49:00.793Z,41.9
2023-03-29T12:50:00.830Z,41.9
2023-03-29T12:51:00.760Z,41.9
2023-03-29T12:52:00.708Z,41.9
2023-03-29T12:53:00.681Z,41.2
2023-03-29T12:54:00.667Z,41.2
2023-03-29T12:55:00.640Z,40
2023-03-29T12:56:00.765Z,41.3
2023-03-29T12:57:00.667Z,41.9
2023-03-29T12:58:00.555Z,41.3
2023-03-29T12:59:00.554Z,40.7
2023-03-29T13:00:00.625Z,42
2023-03-29T13:01:01.776Z,40.7
2023-03-29T13:02:00.579Z,39.4
2023-03-29T13:03:00.625Z,38.8
2023-03-29T13:04:00.593Z,39.1
2023-03-29T13:05:00.650Z,39.4
2023-03-29T13:06:00.742Z,39.1
2023-03-29T13:07:00.552Z,37.2
2023-03-29T13:08:00.567Z,40.1
2023-03-29T13:09:00.576Z,40.1
2023-03-29T13:10:00.577Z,40.1
2023-03-29T13:11:00.606Z,39.4
2023-03-29T13:12:00.591Z,39.4
2023-03-29T13:13:00.561Z,40.7
2023-03-29T13:14:00.582Z,38.8
2023-03-29T13:15:00.582Z,38.2
2023-03-29T13:16:00.742Z,39.5
2023-03-29T13:17:11.883Z,36.9
2023-03-29T13:18:00.619Z,37.5
2023-03-29T13:19:00.564Z,38.5
2023-03-29T13:20:00.605Z,38.2
2023-03-29T13:21:00.565Z,36.5
2023-03-29T13:22:00.579Z,36.9
2023-03-29T13:23:00.587Z,38.1